Time;durP1;ratioP1;P1;durP2;ratioP2;P2;SDS_P1;SDS_P2;PMS_P1;PMS_P2;Temp;Humidity;BMP_temperature;BMP_pressure;BME280_temperature;BME280_humidity;BME280_pressure;Samples;Min_cycle;Max_cycle;Signal;HPM_P1;HPM_P2
2022/03/31 00:01:14;;;;;;;;;35.67;28.00;;;;;12.74;63.27;99301.91;6198396;22;45399;-83
2022/03/31 00:04:17;;;;;;;;;42.67;36.00;;;;;12.90;62.33;99307.84;6200306;22;45271;-83
2022/03/31 00:06:42;;;;;;;;;39.67;36.33;;;;;12.64;62.37;99291.44;6201735;22;45336;-83
2022/03/31 00:09:08;;;;;;;;;43.33;37.00;;;;;12.66;62.29;99297.63;6202494;22;46544;-83
2022/03/31 00:11:33;;;;;;;;;34.33;29.00;;;;;12.60;61.86;99291.50;6203137;22;45342;-84
2022/03/31 00:13:59;;;;;;;;;36.67;33.00;;;;;12.53;62.13;99279.16;6229793;22;45248;-83
2022/03/31 00:16:24;;;;;;;;;44.33;33.33;;;;;12.60;62.49;99288.84;6202963;22;45383;-84
2022/03/31 00:18:50;;;;;;;;;46.33;36.67;;;;;12.57;62.84;99283.53;6229501;22;45265;-84
2022/03/31 00:21:15;;;;;;;;;36.67;32.33;;;;;12.59;62.92;99287.06;6224962;22;44857;-83
2022/03/31 00:23:43;;;;;;;;;45.33;38.00;;;;;12.75;63.21;99292.13;6198435;22;45722;-83
2022/03/31 00:26:09;;;;;;;;;36.67;32.00;;;;;12.66;63.45;99289.63;6198456;22;45366;-84
2022/03/31 00:28:36;;;;;;;;;41.67;35.00;;;;;12.66;63.84;99290.50;6224314;22;46075;-83
2022/03/31 00:31:02;;;;;;;;;47.33;37.00;;;;;12.59;63.80;99284.41;6225073;22;45363;-83
2022/03/31 00:33:27;;;;;;;;;44.33;37.00;;;;;12.60;64.01;99278.16;6198211;22;44744;-84
2022/03/31 00:35:52;;;;;;;;;45.00;37.00;;;;;12.61;63.97;99292.38;6201919;22;45268;-84
2022/03/31 00:38:18;;;;;;;;;44.67;37.00;;;;;12.51;64.27;99280.97;6228839;22;45645;-84
2022/03/31 00:40:44;;;;;;;;;54.25;43.50;;;;;12.46;64.24;99284.63;6220256;22;44674;-85
2022/03/31 00:43:10;;;;;;;;;48.33;38.33;;;;;12.47;63.98;99286.41;6197971;22;45334;-85
2022/03/31 00:45:46;;;;;;;;;52.25;38.00;;;;;12.43;64.35;99284.69;6198328;22;44749;-85
2022/03/31 00:48:13;;;;;;;;;45.50;36.50;;;;;12.23;64.59;99285.88;6197205;22;45467;-85
2022/03/31 00:50:39;;;;;;;;;51.00;41.33;;;;;12.12;65.21;99277.16;6171083;23;45362;-83
2022/03/31 00:53:04;;;;;;;;;52.50;42.25;;;;;12.08;65.15;99265.72;6199553;22;45359;-83
2022/03/31 00:55:30;;;;;;;;;42.75;39.00;;;;;12.17;65.29;99273.53;6170264;23;45677;-83
2022/03/31 00:57:56;;;;;;;;;48.00;41.50;;;;;12.13;65.06;99276.28;6172078;23;46815;-83
2022/03/31 01:00:22;;;;;;;;;46.00;36.00;;;;;12.12;65.32;99266.50;6194901;22;45359;-84
2022/03/31 01:02:47;;;;;;;;;44.50;37.75;;;;;12.06;65.08;99271.94;6172944;23;45329;-83
2022/03/31 01:05:17;;;;;;;;;46.50;40.50;;;;;12.09;65.21;99267.44;6171650;23;45275;-83
2022/03/31 01:07:42;;;;;;;;;43.67;35.33;;;;;12.06;65.85;99262.19;6198743;22;45481;-84
2022/03/31 01:10:11;;;;;;;;;48.25;40.00;;;;;12.07;65.20;99258.59;6172783;23;45355;-84
2022/03/31 01:12:37;;;;;;;;;53.25;42.00;;;;;11.95;65.44;99258.78;6199521;22;45443;-84
2022/03/31 01:15:09;;;;;;;;;51.50;40.50;;;;;12.04;65.64;99258.66;6172931;22;45217;-84
2022/03/31 01:17:37;;;;;;;;;49.75;39.75;;;;;11.92;65.89;99254.41;6171987;22;47020;-84
2022/03/31 01:20:05;;;;;;;;;53.25;43.50;;;;;11.88;65.90;99265.97;6172488;23;45249;-84
2022/03/31 01:22:31;;;;;;;;;37.50;29.50;;;;;11.67;66.72;99250.28;6172317;22;45363;-84
2022/03/31 01:25:05;;;;;;;;;60.00;46.75;;;;;11.80;66.21;99259.88;6197236;22;45296;-82
2022/03/31 01:27:35;;;;;;;;;60.75;46.75;;;;;11.67;66.02;99239.66;6197466;22;45489;-83
2022/03/31 01:30:01;;;;;;;;;62.50;49.75;;;;;11.66;66.20;99248.56;6170056;23;45436;-83
2022/03/31 01:32:27;;;;;;;;;59.75;46.50;;;;;11.66;66.92;99246.75;6171980;23;45310;-83
2022/03/31 01:34:52;;;;;;;;;60.25;48.00;;;;;11.63;66.71;99235.28;6171938;23;45639;-84
2022/03/31 01:37:18;;;;;;;;;62.00;47.50;;;;;11.71;66.47;99244.91;6197013;22;45213;-83
2022/03/31 01:39:44;;;;;;;;;52.25;40.25;;;;;11.69;67.07;99243.16;6171986;22;45379;-84
2022/03/31 01:42:09;;;;;;;;;56.50;43.50;;;;;11.59;66.26;99237.09;6196917;22;45377;-84
2022/03/31 01:44:35;;;;;;;;;57.75;46.00;;;;;11.56;66.53;99224.72;6229058;22;45264;-85
2022/03/31 01:47:01;;;;;;;;;53.50;45.25;;;;;11.52;66.10;99216.78;6201350;22;47031;-84
2022/03/31 01:49:28;;;;;;;;;55.75;45.50;;;;;11.59;66.27;99238.00;6201337;22;45407;-84
2022/03/31 01:51:53;;;;;;;;;55.50;45.75;;;;;11.49;66.24;99217.72;6202762;22;45290;-85
2022/03/31 01:54:18;;;;;;;;;52.00;41.50;;;;;11.51;66.27;99229.25;6201018;22;45346;-84
2022/03/31 02:00:07;;;;;;;;;49.75;38.00;;;;;11.40;66.46;99216.06;6227615;22;45666;-84
2022/03/31 02:02:33;;;;;;;;;56.00;42.50;;;;;11.28;66.52;99218.00;6199429;22;45370;-84
2022/03/31 02:04:58;;;;;;;;;48.75;40.00;;;;;11.24;66.82;99206.53;6195254;22;45434;-84
2022/03/31 02:07:24;;;;;;;;;51.25;42.50;;;;;11.25;66.87;99218.03;6201956;22;46867;-84
2022/03/31 02:09:49;;;;;;;;;51.00;41.50;;;;;11.22;67.17;99213.66;6202741;22;45406;-84
2022/03/31 02:12:16;;;;;;;;;47.25;41.00;;;;;11.25;67.33;99202.97;6202973;22;45428;-84
2022/03/31 02:14:42;;;;;;;;;49.00;39.25;;;;;11.13;66.96;99209.34;6202394;22;45303;-84
2022/03/31 02:17:09;;;;;;;;;48.75;40.00;;;;;11.12;67.55;99220.84;6202275;22;46459;-84
2022/03/31 02:19:35;;;;;;;;;51.00;38.25;;;;;11.07;67.59;99217.41;6228894;22;45398;-84
2022/03/31 02:22:02;;;;;;;;;49.00;40.50;;;;;11.06;67.57;99214.75;6202580;22;45326;-84
2022/03/31 02:24:28;;;;;;;;;47.25;39.50;;;;;11.04;67.88;99219.22;6200817;22;45323;-84
2022/03/31 02:26:54;;;;;;;;;52.00;42.50;;;;;10.99;67.90;99214.81;6227806;22;45380;-84
2022/03/31 02:29:19;;;;;;;;;54.00;43.75;;;;;10.94;67.80;99213.97;6200020;22;45431;-84
2022/03/31 02:31:48;;;;;;;;;51.75;39.75;;;;;10.92;68.23;99213.13;6201183;22;45310;-84
2022/03/31 02:34:16;;;;;;;;;52.25;38.25;;;;;10.92;68.26;99215.78;6201817;22;45343;-84
2022/03/31 02:36:44;;;;;;;;;45.50;38.75;;;;;10.78;68.50;99207.09;6202826;22;47222;-85
2022/03/31 02:39:10;;;;;;;;;43.00;37.50;;;;;10.78;67.91;99210.63;6201757;22;45425;-85
2022/03/31 02:41:36;;;;;;;;;49.50;41.00;;;;;10.78;67.57;99212.41;6185326;23;45400;-85
2022/03/31 02:44:03;;;;;;;;;44.25;38.50;;;;;10.80;68.50;99205.28;6197975;22;45314;-85
2022/03/31 02:46:29;;;;;;;;;46.75;37.50;;;;;10.81;67.97;99221.22;6197122;22;45459;-85
2022/03/31 02:48:55;;;;;;;;;41.50;36.25;;;;;10.78;68.12;99205.28;6167927;22;45750;-84
2022/03/31 02:51:21;;;;;;;;;48.25;39.50;;;;;10.80;68.18;99202.63;6168982;22;45492;-84
2022/03/31 02:56:32;;;;;;;;;49.00;41.25;;;;;10.97;67.97;99211.31;6196651;23;44990;-84
2022/03/31 02:58:59;;;;;;;;;46.00;38.25;;;;;11.09;67.57;99217.34;6196395;22;45707;-84
2022/03/31 03:01:27;;;;;;;;;46.00;37.00;;;;;10.93;67.58;99209.56;6171871;23;45473;-84
2022/03/31 03:03:54;;;;;;;;;55.25;44.75;;;;;10.93;67.57;99201.59;6172014;23;45369;-84
2022/03/31 03:06:20;;;;;;;;;59.00;43.50;;;;;10.92;67.40;99199.81;6198255;22;45403;-83
2022/03/31 03:08:46;;;;;;;;;52.25;40.50;;;;;10.98;67.62;99209.50;6172456;23;45342;-84
2022/03/31 03:11:12;;;;;;;;;51.50;42.25;;;;;10.90;67.12;99203.41;6199025;22;45456;-85
2022/03/31 03:13:38;;;;;;;;;50.00;42.00;;;;;10.74;67.08;99192.06;6194792;22;45629;-84
2022/03/31 03:16:08;;;;;;;;;52.75;42.25;;;;;10.85;67.53;99200.81;6172979;23;47188;-85
2022/03/31 03:18:38;;;;;;;;;49.25;42.00;;;;;10.97;67.39;99192.69;6199449;22;45187;-84
2022/03/31 03:21:04;;;;;;;;;52.50;41.25;;;;;10.90;67.15;99195.44;6174555;22;45394;-84
2022/03/31 03:23:40;;;;;;;;;48.00;40.00;;;;;11.02;66.60;99184.63;6172932;23;44960;-85
2022/03/31 03:26:06;;;;;;;;;54.75;42.75;;;;;10.87;66.93;99180.41;6200739;22;45394;-84
2022/03/31 03:28:36;;;;;;;;;53.25;43.00;;;;;10.99;67.13;99180.25;6199021;22;45644;-84
2022/03/31 03:31:03;;;;;;;;;52.75;41.50;;;;;10.93;66.91;99182.97;6173512;22;45319;-85
2022/03/31 03:33:29;;;;;;;;;54.50;38.50;;;;;10.89;66.71;99183.91;6198848;22;45339;-84
2022/03/31 03:35:55;;;;;;;;;56.50;45.75;;;;;10.79;67.29;99185.81;6173193;23;46799;-84
2022/03/31 03:38:20;;;;;;;;;52.50;41.50;;;;;10.64;67.87;99183.31;6170848;22;45339;-84
2022/03/31 03:40:46;;;;;;;;;53.25;42.00;;;;;10.57;67.44;99177.19;6172151;22;45361;-84
2022/03/31 03:43:12;;;;;;;;;55.50;45.00;;;;;10.56;67.73;99179.84;6172671;22;45367;-84
2022/03/31 03:45:38;;;;;;;;;60.00;47.75;;;;;10.51;67.40;99174.59;6196883;22;45080;-84
2022/03/31 03:48:04;;;;;;;;;55.25;45.25;;;;;10.56;67.36;99187.84;6169363;23;44853;-85
2022/03/31 03:50:31;;;;;;;;;60.00;46.00;;;;;10.54;67.49;99174.59;6170713;23;45454;-85
2022/03/31 03:52:56;;;;;;;;;63.00;47.75;;;;;10.49;67.24;99173.72;6173201;23;45363;-85
2022/03/31 03:55:23;;;;;;;;;55.25;45.25;;;;;10.50;67.86;99170.19;6199152;23;45454;-84
2022/03/31 03:57:48;;;;;;;;;60.00;47.75;;;;;10.39;67.25;99177.38;6172775;23;45389;-84
2022/03/31 04:00:14;;;;;;;;;58.00;46.75;;;;;10.33;67.64;99177.47;6172255;22;45334;-85
2022/03/31 04:02:41;;;;;;;;;60.25;44.50;;;;;10.40;68.17;99181.78;6200744;22;45401;-85
2022/03/31 04:05:08;;;;;;;;;59.50;47.25;;;;;10.17;67.80;99174.03;6174335;23;47100;-85
2022/03/31 04:07:34;;;;;;;;;62.25;46.25;;;;;10.16;68.07;99190.84;6199646;22;44694;-84
2022/03/31 04:09:59;;;;;;;;;52.25;42.50;;;;;10.10;68.25;99173.22;6198343;22;45282;-85
2022/03/31 04:12:24;;;;;;;;;64.50;49.00;;;;;10.14;69.04;99189.97;6171165;23;45379;-85
2022/03/31 04:14:50;;;;;;;;;58.25;46.75;;;;;10.01;68.09;99175.94;6171134;23;46779;-83
2022/03/31 04:17:16;;;;;;;;;59.50;47.75;;;;;10.08;68.28;99192.69;6198647;22;45397;-83
2022/03/31 04:19:43;;;;;;;;;55.75;44.25;;;;;10.04;69.00;99186.56;6171682;23;44775;-83
2022/03/31 04:22:09;;;;;;;;;56.50;46.25;;;;;10.05;68.67;99190.97;6171665;23;45486;-85
2022/03/31 04:24:35;;;;;;;;;50.00;43.75;;;;;10.08;68.43;99195.34;6199163;23;45434;-85
2022/03/31 04:27:00;;;;;;;;;59.00;46.00;;;;;10.06;68.55;99202.44;6172047;22;45346;-84
2022/03/31 04:29:26;;;;;;;;;64.75;49.00;;;;;9.98;68.54;99194.56;6196437;22;45621;-84
2022/03/31 04:31:51;;;;;;;;;58.50;47.25;;;;;9.93;68.66;99193.72;6192037;22;44844;-84
2022/03/31 04:34:19;;;;;;;;;59.00;46.75;;;;;9.89;68.07;99184.00;6170047;23;46746;-85
2022/03/31 04:36:46;;;;;;;;;61.75;48.00;;;;;9.86;68.41;99189.38;6171649;23;45596;-84
2022/03/31 04:39:12;;;;;;;;;63.00;48.75;;;;;9.81;68.42;99194.69;6173779;22;45415;-84
2022/03/31 04:41:43;;;;;;;;;55.00;44.75;;;;;9.74;69.08;99193.88;6196519;22;45356;-84
2022/03/31 04:44:16;;;;;;;;;56.50;45.75;;;;;9.65;68.90;99191.25;6202720;22;47318;-84
2022/03/31 04:46:42;;;;;;;;;63.50;50.00;;;;;9.65;69.24;99199.22;6202845;22;45549;-84
2022/03/31 04:49:07;;;;;;;;;62.25;48.50;;;;;9.67;69.00;99196.56;6202827;22;45783;-85
2022/03/31 04:51:33;;;;;;;;;49.00;40.25;;;;;9.65;69.24;99201.88;6202675;22;44763;-85
2022/03/31 04:53:58;;;;;;;;;60.50;47.75;;;;;9.66;68.89;99190.38;6227269;22;45547;-84
2022/03/31 04:56:25;;;;;;;;;60.25;49.00;;;;;9.62;69.20;99188.66;6225975;22;45345;-84
2022/03/31 04:58:50;;;;;;;;;62.25;49.00;;;;;9.64;69.18;99188.66;6228049;22;45345;-84
2022/03/31 05:01:17;;;;;;;;;57.25;45.75;;;;;9.57;69.01;99179.81;6201991;22;45769;-84
2022/03/31 05:03:43;;;;;;;;;58.25;47.75;;;;;9.56;69.01;99175.44;6227066;22;48006;-84
2022/03/31 05:06:08;;;;;;;;;54.50;44.00;;;;;9.55;69.65;99192.22;6227004;22;45560;-84
2022/03/31 05:08:35;;;;;;;;;56.00;45.25;;;;;9.56;69.52;99186.03;6201604;22;45424;-83
2022/03/31 05:11:01;;;;;;;;;60.75;49.25;;;;;9.49;70.10;99187.84;6201957;22;45778;-84
2022/03/31 05:13:27;;;;;;;;;59.50;44.50;;;;;9.53;69.36;99194.00;6201703;22;46810;-83
2022/03/31 05:15:53;;;;;;;;;57.00;46.25;;;;;9.51;69.54;99193.13;6226648;22;45299;-83
2022/03/31 05:18:19;;;;;;;;;57.75;48.25;;;;;9.39;69.76;99192.34;6172653;22;45172;-83
2022/03/31 05:20:46;;;;;;;;;62.75;48.75;;;;;9.35;71.15;99189.69;6202132;22;45258;-83
2022/03/31 05:23:14;;;;;;;;;64.75;49.50;;;;;9.31;71.04;99198.56;6200767;22;47098;-83
2022/03/31 05:25:40;;;;;;;;;64.25;48.25;;;;;9.31;69.82;99212.72;6201349;22;45670;-84
2022/03/31 05:28:06;;;;;;;;;62.50;47.50;;;;;9.34;70.14;99211.81;6201567;22;45397;-84
2022/03/31 05:30:32;;;;;;;;;54.50;43.75;;;;;9.35;70.80;99219.78;6201709;22;45364;-83
2022/03/31 05:32:59;;;;;;;;;62.00;50.50;;;;;9.19;70.49;99199.53;6200730;22;46615;-84
2022/03/31 05:35:27;;;;;;;;;64.50;52.00;;;;;9.23;70.38;99209.25;6200860;22;45322;-84
2022/03/31 05:37:53;;;;;;;;;61.00;49.50;;;;;9.27;71.47;99218.94;6202245;22;45650;-84
2022/03/31 05:40:19;;;;;;;;;64.00;51.75;;;;;9.26;70.64;99225.13;6200740;22;45414;-84
2022/03/31 05:42:50;;;;;;;;;58.75;48.00;;;;;9.27;71.40;99213.63;6199056;22;46637;-84
2022/03/31 05:45:17;;;;;;;;;62.00;49.00;;;;;9.21;71.95;99230.47;6200049;22;45430;-84
2022/03/31 05:47:44;;;;;;;;;64.25;50.00;;;;;9.20;71.28;99218.06;6199949;22;45310;-84
2022/03/31 05:50:12;;;;;;;;;61.75;49.25;;;;;9.28;72.12;99220.69;6200382;22;45400;-84
2022/03/31 05:52:38;;;;;;;;;68.00;48.25;;;;;9.35;71.06;99222.44;6200692;22;47166;-84
2022/03/31 05:55:09;;;;;;;;;59.75;48.25;;;;;9.60;70.53;99233.78;6202423;22;45259;-84
2022/03/31 05:57:36;;;;;;;;;55.25;46.50;;;;;9.63;70.24;99221.38;6229027;22;45284;-84
2022/03/31 06:00:07;;;;;;;;;64.00;51.50;;;;;9.79;69.87;99225.69;6201590;22;45354;-84
2022/03/31 06:02:34;;;;;;;;;68.00;53.00;;;;;9.74;70.26;99225.72;6201497;22;47604;-84
2022/03/31 06:05:19;;;;;;;;;62.25;51.75;;;;;10.03;69.34;99224.63;6228202;22;44787;-84
2022/03/31 06:07:44;;;;;;;;;68.75;54.00;;;;;9.95;69.57;99232.63;6228529;22;45640;-84
2022/03/31 06:10:10;;;;;;;;;64.00;50.50;;;;;9.98;69.42;99231.75;6201054;22;45466;-83
2022/03/31 06:12:35;;;;;;;;;71.25;54.75;;;;;9.98;69.03;99245.91;6227335;22;47272;-84
2022/03/31 06:15:02;;;;;;;;;66.75;51.50;;;;;9.91;69.06;99244.19;6201689;22;44725;-84
2022/03/31 06:17:28;;;;;;;;;61.75;49.50;;;;;9.74;69.72;99241.66;6203276;22;45776;-85
2022/03/31 06:19:54;;;;;;;;;68.75;53.00;;;;;9.84;69.53;99233.59;6208748;22;45197;-84
2022/03/31 06:22:34;;;;;;;;;69.75;53.25;;;;;9.92;69.05;99242.44;6233904;22;46454;-84
2022/03/31 06:25:00;;;;;;;;;73.25;54.50;;;;;9.91;69.35;99240.66;6234637;22;45418;-84
2022/03/31 06:27:26;;;;;;;;;71.00;53.50;;;;;10.03;69.43;99248.53;6205750;22;44800;-84
2022/03/31 06:29:52;;;;;;;;;73.25;52.75;;;;;10.11;68.94;99244.03;6206766;22;44737;-84
2022/03/31 06:32:18;;;;;;;;;67.75;53.50;;;;;10.14;69.21;99230.75;6205947;22;45773;-86
2022/03/31 06:34:44;;;;;;;;;67.75;54.25;;;;;10.27;69.13;99239.47;6206194;22;45283;-86
2022/03/31 06:37:10;;;;;;;;;69.75;54.75;;;;;10.13;68.96;99199.72;6206399;22;45394;-86
2022/03/31 06:39:36;;;;;;;;;66.00;52.75;;;;;10.35;68.46;99212.88;6205570;22;45920;-85
2022/03/31 06:42:15;;;;;;;;;70.25;56.00;;;;;10.66;68.30;99223.19;6220161;22;46471;-85
2022/03/31 06:44:42;;;;;;;;;67.25;54.25;;;;;10.70;68.34;99231.09;6202441;23;45290;-85
2022/03/31 06:47:07;;;;;;;;;76.75;56.25;;;;;10.73;67.63;99215.13;6175423;23;45329;-83
2022/03/31 06:49:34;;;;;;;;;67.25;53.75;;;;;10.59;67.16;99183.38;6174108;22;45415;-84
2022/03/31 06:52:40;;;;;;;;;;;;;;;;;;;;;
2022/03/31 06:54:55;;;;;;;;;72.25;56.75;;;;;11.00;67.13;99235.19;6181328;23;45463;-84
2022/03/31 06:57:21;;;;;;;;;71.00;54.00;;;;;10.87;67.06;99188.38;6201586;23;45363;-84
2022/03/31 06:59:50;;;;;;;;;69.75;53.75;;;;;10.90;66.32;99169.69;6173629;23;45219;-84
2022/03/31 07:04:51;;;;;;;;;62.50;49.50;;;;;11.47;65.60;99234.59;6157950;22;45854;-84
2022/03/31 07:07:20;;;;;;;;;68.50;51.50;;;;;11.33;65.70;99233.03;6265761;22;44778;-83
2022/03/31 07:09:47;;;;;;;;;69.00;52.50;;;;;11.38;65.47;99236.50;6268141;22;45357;-82
2022/03/31 07:12:16;;;;;;;;;69.25;51.50;;;;;11.38;65.56;99232.94;6291487;22;46275;-82
2022/03/31 07:14:44;;;;;;;;;72.50;54.75;;;;;11.23;65.68;99233.16;6264600;22;45756;-84
2022/03/31 07:17:14;;;;;;;;;67.75;56.00;;;;;11.15;66.08;99242.13;6266079;22;45393;-83
2022/03/31 07:19:42;;;;;;;;;69.75;53.50;;;;;10.98;66.34;99209.50;6241349;22;45120;-82
2022/03/31 07:22:09;;;;;;;;;72.00;53.25;;;;;10.94;66.04;99197.16;6264910;22;45832;-83
2022/03/31 07:24:35;;;;;;;;;66.50;52.75;;;;;11.01;66.11;99241.41;6292759;22;45356;-84
2022/03/31 07:27:04;;;;;;;;;65.50;52.00;;;;;10.74;66.36;99226.63;6266889;22;45337;-85
2022/03/31 07:29:29;;;;;;;;;66.75;52.75;;;;;10.64;67.39;99223.19;6265994;22;45590;-83
2022/03/31 07:31:55;;;;;;;;;66.75;50.00;;;;;10.53;66.96;99228.63;6263377;22;46703;-82
2022/03/31 07:34:21;;;;;;;;;68.00;52.50;;;;;10.42;67.80;99222.53;6236848;22;45481;-80
2022/03/31 07:36:46;;;;;;;;;67.25;51.00;;;;;10.56;68.00;99246.31;6263618;22;44787;-82
2022/03/31 07:39:22;;;;;;;;;65.00;50.50;;;;;10.60;67.94;99222.38;6265123;22;45398;-82
2022/03/31 07:41:49;;;;;;;;;72.75;55.25;;;;;10.40;68.55;99211.03;6264062;22;46597;-82
2022/03/31 07:44:16;;;;;;;;;64.25;51.25;;;;;10.48;67.87;99242.84;6264907;22;44852;-84
2022/03/31 07:46:45;;;;;;;;;69.25;53.50;;;;;10.65;68.53;99266.63;6293327;22;45277;-81
2022/03/31 07:49:56;;;;;;;;;76.50;59.00;;;;;10.47;68.92;99265.91;6271608;22;44812;-82
2022/03/31 07:52:23;;;;;;;;;66.50;53.00;;;;;10.13;71.58;99266.16;6287130;22;45190;-82
2022/03/31 07:54:52;;;;;;;;;67.75;54.25;;;;;9.97;73.92;99264.50;6263588;22;45322;-82
2022/03/31 07:57:19;;;;;;;;;69.25;54.75;;;;;9.83;75.82;99267.25;6264096;22;45834;-83
2022/03/31 07:59:47;;;;;;;;;68.00;52.00;;;;;9.75;78.02;99277.91;6265847;22;44982;-80
2022/03/31 08:05:06;;;;;;;;;67.75;53.00;;;;;9.32;80.13;99246.31;6271723;22;45262;-84
2022/03/31 08:07:37;;;;;;;;;57.50;46.75;;;;;9.46;80.09;99282.53;6296165;22;45404;-82
2022/03/31 08:10:07;;;;;;;;;45.33;37.00;;;;;9.25;83.23;99279.09;6298231;22;45256;-85
2022/03/31 08:12:40;;;;;;;;;18.00;18.00;;;;;9.14;82.36;99287.06;6297543;22;46818;-83
2022/03/31 08:15:41;;;;;;;;;24.00;22.33;;;;;9.07;81.33;99295.94;6272908;22;45404;-83
2022/03/31 08:18:28;;;;;;;;;21.33;21.00;;;;;8.66;81.32;99277.47;6202864;22;44980;-82
2022/03/31 08:21:02;;;;;;;;;12.00;12.00;;;;;8.48;79.74;99276.59;6230012;22;45476;-84
2022/03/31 08:23:53;;;;;;;;;16.00;16.00;;;;;8.47;79.97;99298.69;6229281;22;46519;-83
2022/03/31 08:29:52;;;;;;;;;6.33;5.00;;;;;8.41;77.86;99335.78;6231041;22;45719;-82
2022/03/31 08:32:42;;;;;;;;;9.00;8.67;;;;;7.87;78.39;99274.81;6204124;22;45004;-84
2022/03/31 08:35:34;;;;;;;;;10.00;8.33;;;;;8.25;77.88;99345.47;6204669;22;47991;-83
2022/03/31 08:38:32;;;;;;;;;7.67;7.67;;;;;8.27;77.07;99359.59;6223604;22;45405;-82
2022/03/31 08:41:02;;;;;;;;;11.67;11.00;;;;;8.08;77.17;99353.41;6167039;23;44783;-83
2022/03/31 08:43:32;;;;;;;;;6.33;6.33;;;;;8.01;76.17;99333.06;6149036;22;45403;-83
2022/03/31 08:46:14;;;;;;;;;5.67;5.67;;;;;7.81;75.76;99347.13;6225623;22;45382;-83
2022/03/31 08:48:44;;;;;;;;;7.00;5.00;;;;;7.93;76.71;99362.16;6200320;22;45727;-83
2022/03/31 08:51:13;;;;;;;;;8.67;6.00;;;;;7.89;76.78;99362.16;6199409;22;45254;-83
2022/03/31 08:53:38;;;;;;;;;7.00;7.00;;;;;7.71;76.87;99347.13;6201953;22;45560;-84
2022/03/31 08:56:04;;;;;;;;;6.00;6.00;;;;;7.89;76.69;99375.41;6201582;22;46500;-83
2022/03/31 08:58:36;;;;;;;;;7.00;7.00;;;;;7.82;76.62;99364.78;6201939;22;45393;-82
2022/03/31 09:01:02;;;;;;;;;8.33;6.67;;;;;7.79;76.33;99393.88;6229761;22;45863;-83
2022/03/31 09:04:05;;;;;;;;;8.00;7.00;;;;;7.96;76.35;99401.03;6203292;22;45212;-83
2022/03/31 09:06:30;;;;;;;;;6.33;6.00;;;;;7.87;76.82;99416.88;6077721;23;47509;-83
2022/03/31 09:09:06;;;;;;;;;8.33;7.00;;;;;7.92;76.86;99399.25;6107345;23;45315;-82
2022/03/31 09:15:46;;;;;;;;;6.00;6.00;;;;;8.16;75.53;99430.19;6106111;23;45277;-82
2022/03/31 09:18:17;;;;;;;;;7.00;6.00;;;;;8.16;76.47;99432.81;6146180;23;46131;-82
2022/03/31 09:20:49;;;;;;;;;5.33;5.33;;;;;8.12;75.26;99434.59;6164525;23;44843;-81
2022/03/31 09:23:21;;;;;;;;;6.00;6.00;;;;;8.11;74.56;99437.25;6141107;23;44830;-81
2022/03/31 09:25:50;;;;;;;;;10.00;9.00;;;;;7.93;75.78;99438.94;6165184;23;45519;-81
2022/03/31 09:28:22;;;;;;;;;8.33;8.33;;;;;8.01;74.83;99442.50;6164862;23;47530;-79
2022/03/31 09:30:52;;;;;;;;;7.00;6.00;;;;;7.97;75.31;99451.31;6164706;23;45501;-82
2022/03/31 09:33:34;;;;;;;;;5.00;3.00;;;;;7.93;75.07;99457.47;6165442;23;45406;-81
2022/03/31 09:36:02;;;;;;;;;7.00;6.00;;;;;7.86;74.75;99447.75;6165551;22;45502;-80
2022/03/31 09:38:28;;;;;;;;;6.67;6.67;;;;;7.84;74.74;99457.44;6293850;22;47260;-81
2022/03/31 09:40:58;;;;;;;;;5.00;5.00;;;;;7.90;74.85;99457.47;6321530;22;44799;-81
2022/03/31 09:43:25;;;;;;;;;8.00;6.33;;;;;7.90;75.06;99465.41;6321790;22;44807;-80
2022/03/31 09:45:51;;;;;;;;;3.00;3.00;;;;;7.69;74.69;99439.72;6321622;22;45356;-82
2022/03/31 09:48:25;;;;;;;;;5.33;5.33;;;;;7.88;74.53;99477.75;6319801;22;46742;-82
2022/03/31 09:50:51;;;;;;;;;8.33;8.33;;;;;7.68;75.58;99458.25;6270732;22;45238;-82
2022/03/31 09:53:20;;;;;;;;;7.00;7.00;;;;;7.72;75.17;99474.16;6324285;22;45282;-82
2022/03/31 09:55:53;;;;;;;;;6.67;5.00;;;;;7.80;76.66;99468.91;6323433;22;45293;-81
2022/03/31 09:58:20;;;;;;;;;2.33;2.33;;;;;7.84;76.56;99460.09;6295166;22;46758;-82
2022/03/31 10:00:46;;;;;;;;;12.33;9.67;;;;;7.94;76.85;99466.31;6293402;22;45487;-80
2022/03/31 10:03:17;;;;;;;;;10.00;7.67;;;;;8.10;75.43;99470.78;6321637;22;45485;-80
2022/03/31 10:05:45;;;;;;;;;8.33;6.00;;;;;8.03;75.37;99447.81;6321684;22;45617;-82
2022/03/31 10:08:11;;;;;;;;;5.67;4.33;;;;;8.20;75.34;99475.22;6325220;22;45639;-81
2022/03/31 10:10:39;;;;;;;;;2.00;2.00;;;;;8.33;74.26;99465.56;6325367;22;44814;-80
2022/03/31 10:13:22;;;;;;;;;5.00;5.00;;;;;8.44;72.65;99468.25;6324826;22;45320;-83
2022/03/31 10:16:13;;;;;;;;;6.00;3.00;;;;;8.48;72.50;99464.72;6297638;22;45303;-82
2022/03/31 10:18:47;;;;;;;;;6.00;2.67;;;;;8.58;72.51;99473.56;6321355;22;45266;-83
2022/03/31 10:21:30;;;;;;;;;3.00;3.00;;;;;8.70;72.63;99467.41;6321408;22;45300;-82
2022/03/31 10:26:41;;;;;;;;;3.67;2.67;;;;;8.79;72.30;99465.66;6323008;22;44762;-81
2022/03/31 10:29:14;;;;;;;;;3.00;2.33;;;;;9.04;72.39;99467.44;6293583;22;46751;-82
2022/03/31 10:31:49;;;;;;;;;6.67;6.00;;;;;9.11;71.64;99463.88;6293484;22;45401;-81
2022/03/31 10:34:34;;;;;;;;;4.33;4.33;;;;;9.21;70.90;99463.03;6318467;22;44733;-82
2022/03/31 10:37:06;;;;;;;;;5.00;5.00;;;;;9.21;70.64;99473.63;6293929;22;45403;-82
2022/03/31 10:39:31;;;;;;;;;6.00;5.00;;;;;9.15;70.92;99469.22;6323931;22;45008;-81
2022/03/31 10:42:05;;;;;;;;;2.00;2.00;;;;;9.28;69.49;99446.19;6322684;22;45612;-81
2022/03/31 10:44:32;;;;;;;;;2.33;2.33;;;;;9.39;69.67;99478.00;6326895;22;44729;-80
2022/03/31 10:47:04;;;;;;;;;5.00;2.33;;;;;9.39;69.70;99452.38;6273250;22;45404;-81
2022/03/31 10:49:30;;;;;;;;;4.00;2.33;;;;;9.36;68.89;99446.19;6295616;22;46902;-83
2022/03/31 10:52:23;;;;;;;;;3.00;1.00;;;;;9.43;67.97;99457.66;6297610;22;44880;-79
2022/03/31 10:54:51;;;;;;;;;2.00;2.00;;;;;9.51;69.42;99458.53;6323967;22;45217;-83
2022/03/31 10:57:18;;;;;;;;;2.67;2.67;;;;;9.63;68.66;99450.53;6300249;22;45525;-81
2022/03/31 11:11:23;;;;;;;;;2.67;2.67;;;;;9.91;64.82;99451.31;6245878;22;46144;-83
2022/03/31 11:13:59;;;;;;;;;1.67;1.67;;;;;9.94;66.13;99463.72;6298412;22;44755;-83
2022/03/31 11:20:14;;;;;;;;;3.00;3.00;;;;;10.06;66.34;99461.00;6294505;22;45609;-86
2022/03/31 11:23:08;;;;;;;;;7.00;7.00;;;;;9.92;67.54;99404.41;6268356;22;47304;-84
2022/03/31 11:25:45;;;;;;;;;10.67;5.00;;;;;10.30;65.46;99435.22;6265195;22;45315;-85
2022/03/31 11:28:14;;;;;;;;;4.00;4.00;;;;;10.04;63.45;99408.75;6288660;22;45363;-85
2022/03/31 11:30:49;;;;;;;;;4.33;4.33;;;;;10.27;63.73;99444.06;6242561;22;45262;-86
2022/03/31 11:33:53;;;;;;;;;6.33;5.33;;;;;10.37;61.77;99447.59;6267389;22;45469;-84
2022/03/31 11:36:20;;;;;;;;;8.00;6.00;;;;;10.08;64.20;99415.81;6266937;22;44764;-86
2022/03/31 11:39:38;;;;;;;;;;;;;;;;;;;;;
2022/03/31 11:45:55;;;;;;;;;3.00;3.00;;;;;10.17;61.94;99426.41;6231385;22;45453;-85
2022/03/31 11:48:45;;;;;;;;;2.33;2.33;;;;;10.04;61.51;99414.97;6208084;22;45519;-84
2022/03/31 11:51:13;;;;;;;;;4.00;4.00;;;;;10.00;62.35;99451.28;6204555;22;44783;-84
2022/03/31 11:53:47;;;;;;;;;6.00;5.00;;;;;9.97;62.17;99451.28;6206466;22;45444;-84
2022/03/31 11:56:26;;;;;;;;;6.00;3.00;;;;;9.93;61.59;99443.34;6140657;22;46519;-84
2022/03/31 11:58:57;;;;;;;;;6.00;4.67;;;;;9.98;62.27;99471.66;6234380;22;45358;-82
2022/03/31 12:01:45;;;;;;;;;5.67;5.67;;;;;9.95;60.63;99465.47;6181253;22;44854;-82
2022/03/31 12:12:08;;;;;;;;;5.00;5.00;;;;;10.03;59.94;99461.00;6202427;22;44946;-83
2022/03/31 12:14:41;;;;;;;;;2.67;2.00;;;;;10.02;60.92;99468.09;6178078;22;45641;-83
2022/03/31 12:17:33;;;;;;;;;2.33;2.33;;;;;9.79;60.92;99452.25;6201974;22;45298;-83
2022/03/31 12:20:15;;;;;;;;;5.00;5.00;;;;;9.93;58.93;99454.84;6202420;22;45259;-84
2022/03/31 12:22:41;;;;;;;;;2.00;2.00;;;;;9.79;59.85;99467.28;6205311;22;44752;-84
2022/03/31 12:25:36;;;;;;;;;6.33;6.33;;;;;9.99;60.54;99464.56;6178801;22;44828;-83
2022/03/31 12:28:06;;;;;;;;;3.00;3.00;;;;;9.98;60.16;99449.53;6178339;22;47002;-84